Time;durP1;ratioP1;P1;durP2;ratioP2;P2;SDS_P1;SDS_P2;PMS_P1;PMS_P2;Temp;Humidity;BMP_temperature;BMP_pressure;BME280_temperature;BME280_humidity;BME280_pressure;Samples;Min_cycle;Max_cycle;Signal;HPM_P1;HPM_P2
2022/04/12 00:01:12;;;;;;;6.63;5.90;;;12.10;46.10;;;;;;5087691;28;20458;-87
2022/04/12 00:03:39;;;;;;;7.40;5.90;;;12.10;46.10;;;;;;5098012;28;20451;-90
2022/04/12 00:09:00;;;;;;;8.87;5.23;;;12.00;45.80;;;;;;5079069;28;20444;-87
2022/04/12 00:11:27;;;;;;;6.03;5.20;;;12.00;46.70;;;;;;5091596;28;20848;-85
2022/04/12 00:13:54;;;;;;;6.50;4.60;;;12.00;46.00;;;;;;5090381;28;20465;-88
2022/04/12 00:16:21;;;;;;;6.47;5.17;;;11.90;46.90;;;;;;5090149;28;20468;-87
2022/04/12 00:19:06;;;;;;;5.80;4.90;;;11.90;46.40;;;;;;5089481;28;20460;-88
2022/04/12 00:21:35;;;;;;;10.33;4.77;;;11.90;46.50;;;;;;5092527;28;20440;-87
2022/04/12 00:24:06;;;;;;;7.33;5.10;;;11.90;46.40;;;;;;5074841;28;20454;-90
2022/04/12 00:26:33;;;;;;;8.30;5.43;;;11.80;46.20;;;;;;5085668;28;20841;-88
2022/04/12 00:29:01;;;;;;;5.43;4.70;;;11.80;46.30;;;;;;5093257;28;21172;-86
2022/04/12 00:31:30;;;;;;;5.10;4.40;;;11.80;46.20;;;;;;5087685;28;20551;-87
2022/04/12 00:33:57;;;;;;;5.77;4.83;;;11.80;46.00;;;;;;5071837;28;20465;-88
2022/04/12 00:36:25;;;;;;;8.70;5.10;;;11.80;46.00;;;;;;5080248;28;20468;-87
2022/04/12 00:38:52;;;;;;;6.20;4.83;;;11.80;45.90;;;;;;5054971;28;21018;-87
2022/04/12 00:41:20;;;;;;;6.70;4.80;;;11.80;45.80;;;;;;5063819;28;20455;-86
2022/04/12 00:43:47;;;;;;;7.80;5.00;;;11.70;45.80;;;;;;5079203;28;20539;-88
2022/04/12 00:46:14;;;;;;;6.70;4.73;;;11.70;45.90;;;;;;5080269;28;20572;-87
2022/04/12 00:48:41;;;;;;;6.50;5.37;;;11.70;46.00;;;;;;5088422;28;20442;-88
2022/04/12 00:51:08;;;;;;;10.57;5.00;;;11.70;45.90;;;;;;5063600;28;20443;-89
2022/04/12 00:53:35;;;;;;;5.27;4.77;;;11.70;46.10;;;;;;5076551;28;20475;-86
2022/04/12 00:56:02;;;;;;;8.77;5.00;;;11.60;46.10;;;;;;5086456;28;20496;-88
2022/04/12 00:58:30;;;;;;;7.13;5.53;;;11.60;46.00;;;;;;5097597;28;20484;-86
2022/04/12 01:00:58;;;;;;;7.07;4.60;;;11.60;45.90;;;;;;5067169;28;20536;-86
2022/04/12 01:03:25;;;;;;;5.27;4.37;;;11.60;46.00;;;;;;5104791;28;20463;-87
2022/04/12 01:05:52;;;;;;;7.60;5.37;;;11.50;46.20;;;;;;5071024;28;20478;-86
2022/04/12 01:08:19;;;;;;;8.33;5.00;;;11.40;46.30;;;;;;5089092;28;20486;-87
2022/04/12 01:10:46;;;;;;;5.90;4.60;;;11.40;46.40;;;;;;5091154;28;21029;-87
2022/04/12 01:13:13;;;;;;;6.90;5.00;;;11.30;47.10;;;;;;5087016;28;20451;-85
2022/04/12 01:15:43;;;;;;;5.97;5.37;;;11.30;46.70;;;;;;5088506;28;20551;-86
2022/04/12 01:18:10;;;;;;;6.03;4.90;;;11.30;47.00;;;;;;5088945;28;20460;-87
2022/04/12 01:20:37;;;;;;;6.17;5.03;;;11.20;47.10;;;;;;5088715;28;20504;-87
2022/04/12 01:23:09;;;;;;;6.83;5.63;;;11.20;46.90;;;;;;5088622;28;20447;-87
2022/04/12 01:25:38;;;;;;;5.20;4.70;;;11.20;46.80;;;;;;5087045;28;20532;-87
2022/04/12 01:28:06;;;;;;;6.43;5.83;;;11.20;46.60;;;;;;5088188;28;20531;-87
2022/04/12 01:30:33;;;;;;;7.90;5.43;;;11.10;46.40;;;;;;5088813;28;20599;-87
2022/04/12 01:33:00;;;;;;;4.37;3.97;;;11.10;46.50;;;;;;5069119;28;20451;-86
2022/04/12 01:35:27;;;;;;;6.43;4.90;;;11.00;46.40;;;;;;5088620;28;20502;-88
2022/04/12 01:37:54;;;;;;;6.13;4.93;;;11.00;46.60;;;;;;5071926;28;20448;-87
2022/04/12 01:40:21;;;;;;;6.53;5.03;;;11.00;46.60;;;;;;5070422;28;20448;-86
2022/04/12 01:42:52;;;;;;;5.93;4.70;;;11.00;46.90;;;;;;5090739;28;20457;-86
2022/04/12 01:45:20;;;;;;;6.87;5.20;;;11.00;47.00;;;;;;5096025;28;21340;-87
2022/04/12 01:47:47;;;;;;;6.50;5.17;;;11.00;47.10;;;;;;5100776;28;20439;-86
2022/04/12 01:50:13;;;;;;;6.00;5.30;;;11.00;47.10;;;;;;5091117;28;20448;-89
2022/04/12 01:52:40;;;;;;;7.67;4.77;;;11.00;46.90;;;;;;5094694;28;20951;-87
2022/04/12 01:55:09;;;;;;;8.90;5.63;;;11.00;47.00;;;;;;5089475;28;20439;-89
2022/04/12 01:57:36;;;;;;;6.10;5.00;;;11.00;47.00;;;;;;5076750;28;20462;-87
2022/04/12 02:00:06;;;;;;;8.20;4.90;;;10.90;46.80;;;;;;5091785;28;20452;-86
2022/04/12 02:02:39;;;;;;;6.73;4.93;;;10.90;46.50;;;;;;5092110;28;20581;-89
2022/04/12 02:05:06;;;;;;;4.97;4.50;;;10.80;46.80;;;;;;5091056;28;20672;-86
2022/04/12 02:07:33;;;;;;;7.17;4.90;;;10.80;47.30;;;;;;5092685;28;20471;-87
2022/04/12 02:10:00;;;;;;;7.00;4.93;;;10.80;47.30;;;;;;5092992;28;20454;-86
2022/04/12 02:12:27;;;;;;;8.03;4.90;;;10.80;47.20;;;;;;5074599;28;20465;-87
2022/04/12 02:14:54;;;;;;;9.20;5.00;;;10.80;47.30;;;;;;5092162;28;20459;-87
2022/04/12 02:17:22;;;;;;;6.80;4.73;;;10.70;47.00;;;;;;5094320;28;20471;-87
2022/04/12 02:19:49;;;;;;;7.37;5.00;;;10.70;47.00;;;;;;5091756;28;20444;-86
2022/04/12 02:22:16;;;;;;;8.57;4.47;;;10.70;47.00;;;;;;5077912;28;20454;-86
2022/04/12 02:24:43;;;;;;;5.83;5.13;;;10.70;47.00;;;;;;5088424;28;20447;-86
2022/04/12 02:27:10;;;;;;;5.97;4.90;;;10.70;47.10;;;;;;5093790;28;20475;-87
2022/04/12 02:29:37;;;;;;;5.73;4.40;;;10.70;47.10;;;;;;5092156;28;20478;-87
2022/04/12 02:32:32;;;;;;;8.10;5.03;;;10.70;47.20;;;;;;5088535;28;20454;-86
2022/04/12 02:35:00;;;;;;;5.27;4.60;;;10.60;46.80;;;;;;5089469;28;20531;-86
2022/04/12 02:37:28;;;;;;;8.30;4.77;;;10.60;47.00;;;;;;5087342;28;20455;-88
2022/04/12 02:39:56;;;;;;;6.63;4.97;;;10.50;47.40;;;;;;5063508;28;20452;-87
2022/04/12 02:42:23;;;;;;;7.80;5.37;;;10.40;47.70;;;;;;5092914;28;20443;-86
2022/04/12 02:44:50;;;;;;;7.17;5.40;;;10.40;47.80;;;;;;5088352;28;20741;-84
2022/04/12 02:47:17;;;;;;;5.43;4.77;;;10.40;48.00;;;;;;5076026;28;20475;-87
2022/04/12 02:49:45;;;;;;;5.87;5.00;;;10.40;47.90;;;;;;5079627;28;20443;-89
2022/04/12 02:52:14;;;;;;;6.90;4.80;;;10.40;47.90;;;;;;5072486;28;20443;-89
2022/04/12 02:54:41;;;;;;;7.20;5.07;;;10.50;47.70;;;;;;5074881;28;20950;-86
2022/04/12 02:57:08;;;;;;;5.60;4.63;;;10.50;47.50;;;;;;5075246;28;20467;-88
2022/04/12 02:59:35;;;;;;;10.63;5.80;;;10.40;47.30;;;;;;5087229;28;20464;-87
2022/04/12 03:02:02;;;;;;;6.93;4.70;;;10.50;47.30;;;;;;5089664;28;21120;-86
2022/04/12 03:04:29;;;;;;;6.30;5.70;;;10.50;47.30;;;;;;5088028;28;20884;-87
2022/04/12 03:06:57;;;;;;;7.70;4.73;;;10.50;47.20;;;;;;5081238;28;20487;-86
2022/04/12 03:09:24;;;;;;;5.60;4.30;;;10.40;47.20;;;;;;5088720;28;20452;-87
2022/04/12 03:11:51;;;;;;;8.70;5.30;;;10.40;47.40;;;;;;5055105;28;20436;-86
2022/04/12 03:14:18;;;;;;;5.73;4.93;;;10.40;47.50;;;;;;5074080;28;20446;-86
2022/04/12 03:16:45;;;;;;;8.77;5.50;;;10.40;47.40;;;;;;5098711;28;20471;-87
2022/04/12 03:19:13;;;;;;;6.50;4.83;;;10.40;47.50;;;;;;5091954;28;20451;-86
2022/04/12 03:21:42;;;;;;;7.50;5.07;;;10.30;47.50;;;;;;5089181;28;20796;-86
2022/04/12 03:24:36;;;;;;;6.70;5.37;;;10.30;47.70;;;;;;5089629;28;20509;-87
2022/04/12 03:27:03;;;;;;;9.67;5.77;;;10.30;47.80;;;;;;5090485;28;20568;-87
2022/04/12 03:29:30;;;;;;;7.43;5.67;;;10.30;47.70;;;;;;5091603;28;21003;-87
2022/04/12 03:31:57;;;;;;;9.10;5.30;;;10.20;47.80;;;;;;5090881;28;20867;-89
2022/04/12 03:34:24;;;;;;;7.37;4.97;;;10.20;47.80;;;;;;5087112;28;20456;-87
2022/04/12 03:36:51;;;;;;;10.43;5.80;;;10.20;47.70;;;;;;5090396;28;20478;-87
2022/04/12 03:39:19;;;;;;;8.90;5.90;;;10.20;47.80;;;;;;5087189;28;20479;-87
2022/04/12 03:41:49;;;;;;;9.07;6.40;;;10.20;48.00;;;;;;5088113;28;20462;-87
2022/04/12 03:44:18;;;;;;;9.03;6.83;;;10.20;48.10;;;;;;5079182;28;20470;-87
2022/04/12 03:46:45;;;;;;;6.90;5.37;;;10.10;48.00;;;;;;5088363;28;20474;-86
2022/04/12 03:49:12;;;;;;;5.93;5.17;;;10.10;48.00;;;;;;5089872;28;20457;-88
2022/04/12 03:51:39;;;;;;;7.40;5.63;;;10.10;48.00;;;;;;5088707;28;20822;-87
2022/04/12 03:54:31;;;;;;;6.90;4.93;;;10.00;48.10;;;;;;5075071;28;20444;-87
2022/04/12 03:57:00;;;;;;;8.17;5.20;;;10.00;48.10;;;;;;5088477;28;20507;-86
2022/04/12 03:59:28;;;;;;;11.80;5.70;;;10.00;48.20;;;;;;5089945;28;20463;-87
2022/04/12 04:01:56;;;;;;;8.33;5.60;;;10.00;48.20;;;;;;5080423;28;20447;-86
2022/04/12 04:04:23;;;;;;;6.53;5.23;;;10.00;48.30;;;;;;5085411;28;20454;-87
2022/04/12 04:06:50;;;;;;;11.10;6.50;;;10.00;48.10;;;;;;5084404;28;21055;-86
2022/04/12 04:09:17;;;;;;;11.13;7.10;;;9.80;48.60;;;;;;5074570;28;20467;-87
2022/04/12 04:11:45;;;;;;;7.70;6.53;;;9.70;49.40;;;;;;5089502;28;21010;-87
2022/04/12 04:14:18;;;;;;;9.20;7.27;;;9.60;49.60;;;;;;5089640;28;20491;-88
2022/04/12 04:16:45;;;;;;;10.30;7.77;;;9.60;50.10;;;;;;5087846;28;20686;-86
2022/04/12 04:19:12;;;;;;;12.73;7.90;;;9.70;50.10;;;;;;5086869;28;20455;-88
2022/04/12 04:21:39;;;;;;;11.87;7.17;;;9.70;49.90;;;;;;5089010;28;20554;-87
2022/04/12 04:26:58;;;;;;;12.00;7.83;;;9.80;49.70;;;;;;5085003;28;20495;-87
2022/04/12 04:29:27;;;;;;;18.47;7.33;;;9.80;49.50;;;;;;5098602;28;20459;-87
2022/04/12 04:31:54;;;;;;;12.40;7.47;;;9.90;49.50;;;;;;5089876;28;20447;-86
2022/04/12 04:34:21;;;;;;;13.60;7.30;;;9.90;49.50;;;;;;5070163;28;20535;-90
2022/04/12 04:36:48;;;;;;;11.90;8.00;;;9.90;49.50;;;;;;5069686;28;20743;-88
2022/04/12 04:39:15;;;;;;;16.13;6.90;;;9.90;49.60;;;;;;5090003;28;20463;-86
2022/04/12 04:41:43;;;;;;;11.10;7.00;;;9.90;49.50;;;;;;5087337;28;20458;-86
2022/04/12 04:44:36;;;;;;;10.87;7.70;;;9.90;49.40;;;;;;5103816;27;20497;-86
2022/04/12 04:47:05;;;;;;;11.33;7.60;;;9.90;49.40;;;;;;5086182;28;20493;-88
2022/04/12 04:49:32;;;;;;;11.10;6.93;;;9.90;49.40;;;;;;5070192;28;20574;-87
2022/04/12 04:51:59;;;;;;;9.63;7.30;;;9.90;49.40;;;;;;5103433;27;20474;-88
2022/04/12 04:54:26;;;;;;;9.97;7.30;;;9.90;49.20;;;;;;5070259;28;20464;-88
2022/04/12 04:56:53;;;;;;;12.87;9.03;;;9.90;49.60;;;;;;5077862;28;20463;-86
2022/04/12 04:59:23;;;;;;;11.90;7.60;;;9.90;50.00;;;;;;5086565;28;20444;-86
2022/04/12 05:01:51;;;;;;;28.77;15.70;;;9.90;49.90;;;;;;5085239;28;20466;-86
2022/04/12 05:04:18;;;;;;;20.70;12.53;;;9.90;49.70;;;;;;5086746;28;20455;-90
2022/04/12 05:06:46;;;;;;;12.07;8.33;;;9.90;49.70;;;;;;5087623;28;20467;-87
2022/04/12 05:09:13;;;;;;;11.63;8.00;;;9.90;49.90;;;;;;5085792;28;20486;-88
2022/04/12 05:11:40;;;;;;;9.23;6.50;;;9.90;49.90;;;;;;5083349;28;20546;-86
2022/04/12 05:17:00;;;;;;;15.73;7.83;;;10.00;48.90;;;;;;5084862;28;20753;-88
2022/04/12 05:19:27;;;;;;;14.83;8.43;;;10.00;49.00;;;;;;5070126;28;20440;-88
2022/04/12 05:21:54;;;;;;;16.63;10.03;;;10.00;49.60;;;;;;5064061;28;20450;-86
2022/04/12 05:24:21;;;;;;;21.23;10.90;;;10.00;49.80;;;;;;5088124;28;20966;-87
2022/04/12 05:26:48;;;;;;;16.90;10.40;;;10.00;50.00;;;;;;5089469;28;20471;-89
2022/04/12 05:29:15;;;;;;;14.57;9.80;;;10.00;50.20;;;;;;5071515;28;20442;-86
2022/04/12 05:31:41;;;;;;;16.70;9.03;;;10.00;50.10;;;;;;5098459;28;20455;-88
2022/04/12 05:34:10;;;;;;;14.20;8.87;;;10.00;50.20;;;;;;5089729;28;20447;-86
2022/04/12 05:36:37;;;;;;;15.03;8.27;;;10.00;50.30;;;;;;5088390;28;20942;-86
2022/04/12 05:39:04;;;;;;;11.20;7.10;;;10.10;50.40;;;;;;5087444;28;20453;-88
2022/04/12 05:41:31;;;;;;;12.00;7.80;;;10.10;50.20;;;;;;5053990;28;20447;-88
2022/04/12 05:43:57;;;;;;;8.43;6.40;;;10.20;50.10;;;;;;5087164;28;20858;-86
2022/04/12 05:46:25;;;;;;;13.50;6.87;;;10.20;50.20;;;;;;5086858;28;21460;-88
2022/04/12 05:48:52;;;;;;;9.40;6.80;;;10.20;50.30;;;;;;5087715;28;20951;-85
2022/04/12 05:51:20;;;;;;;11.67;7.50;;;10.20;50.50;;;;;;5077614;28;20488;-87
2022/04/12 05:53:47;;;;;;;8.27;6.50;;;10.30;50.70;;;;;;5070892;28;20436;-87
2022/04/12 05:56:14;;;;;;;8.53;6.97;;;10.40;50.70;;;;;;5058306;28;20483;-87
2022/04/12 05:58:41;;;;;;;11.60;7.80;;;10.50;50.80;;;;;;5071648;28;21363;-88
2022/04/12 06:01:08;;;;;;;8.27;6.73;;;10.50;50.80;;;;;;5060690;28;20443;-86
2022/04/12 06:03:35;;;;;;;11.23;8.90;;;10.50;50.50;;;;;;5073126;28;20462;-87
2022/04/12 06:06:02;;;;;;;15.57;9.80;;;10.40;50.70;;;;;;5084866;28;20464;-87
2022/04/12 06:08:30;;;;;;;11.73;7.83;;;10.50;50.80;;;;;;5073104;28;20919;-86
2022/04/12 06:10:57;;;;;;;11.37;8.40;;;10.50;50.60;;;;;;5077582;28;20733;-86
2022/04/12 06:13:24;;;;;;;11.90;7.37;;;10.60;50.60;;;;;;5085424;28;20503;-87
2022/04/12 06:15:51;;;;;;;12.47;9.07;;;10.60;50.60;;;;;;5081648;28;21295;-86
2022/04/12 06:18:18;;;;;;;19.40;9.33;;;10.70;50.70;;;;;;5089973;28;20451;-88
2022/04/12 06:20:45;;;;;;;12.27;9.93;;;10.70;50.60;;;;;;5089203;28;20448;-88
2022/04/12 06:23:12;;;;;;;14.83;8.80;;;10.70;50.40;;;;;;5094972;28;20444;-87
2022/04/12 06:25:40;;;;;;;17.30;8.47;;;10.60;50.60;;;;;;5087650;28;20482;-87
2022/04/12 06:28:08;;;;;;;14.97;9.60;;;10.70;50.70;;;;;;5083617;28;20455;-88
2022/04/12 06:30:35;;;;;;;13.10;10.00;;;10.70;50.70;;;;;;5086726;28;20470;-87
2022/04/12 06:33:02;;;;;;;53.67;21.50;;;10.70;50.80;;;;;;5077695;28;20825;-87
2022/04/12 06:35:29;;;;;;;102.43;39.87;;;10.80;50.80;;;;;;5068439;28;20459;-88
2022/04/12 06:37:56;;;;;;;54.80;22.03;;;10.80;50.30;;;;;;5087274;28;20458;-89
2022/04/12 06:40:24;;;;;;;39.33;17.03;;;10.80;50.10;;;;;;5087642;28;20475;-87
2022/04/12 06:42:53;;;;;;;25.40;14.50;;;10.80;50.70;;;;;;5085222;28;20461;-87
2022/04/12 06:45:20;;;;;;;21.03;13.10;;;10.80;50.70;;;;;;5085731;28;20459;-87
2022/04/12 06:47:53;;;;;;;24.87;12.63;;;10.80;50.80;;;;;;5085068;28;20470;-86
2022/04/12 06:50:20;;;;;;;14.17;10.40;;;10.90;51.30;;;;;;5086205;28;20507;-87
2022/04/12 06:52:47;;;;;;;16.40;10.67;;;10.90;50.20;;;;;;5087644;28;20458;-87
2022/04/12 06:55:16;;;;;;;16.50;11.20;;;11.00;50.10;;;;;;5085924;28;20439;-87
2022/04/12 06:57:43;;;;;;;22.63;11.10;;;11.00;49.90;;;;;;5089235;28;20435;-87
2022/04/12 07:00:13;;;;;;;23.33;13.17;;;11.10;50.30;;;;;;5088273;28;20465;-87
2022/04/12 07:02:40;;;;;;;18.10;12.30;;;11.10;50.30;;;;;;5079164;28;20456;-85
2022/04/12 07:05:08;;;;;;;19.33;11.13;;;11.10;50.10;;;;;;5086436;28;20487;-87
2022/04/12 07:07:37;;;;;;;19.50;11.60;;;11.20;50.30;;;;;;5090695;28;20463;-88
2022/04/12 07:10:04;;;;;;;22.33;11.33;;;11.20;50.20;;;;;;5088292;28;22063;-87
2022/04/12 07:12:31;;;;;;;21.43;11.90;;;11.20;50.20;;;;;;5070092;28;20731;-86
2022/04/12 07:14:59;;;;;;;25.70;13.83;;;11.20;50.10;;;;;;5083958;28;20456;-86
2022/04/12 07:17:28;;;;;;;20.87;10.67;;;11.30;50.30;;;;;;5086232;28;20475;-87
2022/04/12 07:19:55;;;;;;;14.70;9.47;;;11.40;50.30;;;;;;5087958;28;20494;-86
2022/04/12 07:22:22;;;;;;;17.10;8.63;;;11.50;50.30;;;;;;5087629;28;20490;-88
2022/04/12 07:24:49;;;;;;;16.20;10.53;;;11.50;50.20;;;;;;5088742;28;20457;-87
2022/04/12 07:27:17;;;;;;;11.87;8.00;;;11.50;50.10;;;;;;5085345;28;20483;-85
2022/04/12 07:29:44;;;;;;;10.87;7.90;;;11.60;49.90;;;;;;5087292;28;20446;-86
2022/04/12 07:32:15;;;;;;;10.23;8.30;;;11.70;50.20;;;;;;5089609;28;21033;-87
2022/04/12 07:34:43;;;;;;;13.30;9.57;;;11.70;50.30;;;;;;5084943;28;20809;-87
2022/04/12 07:37:10;;;;;;;13.43;9.57;;;11.80;50.40;;;;;;5087178;28;20885;-88
2022/04/12 07:39:37;;;;;;;9.83;7.40;;;11.80;50.00;;;;;;5084802;28;20459;-87
2022/04/12 07:42:31;;;;;;;9.33;8.00;;;11.90;49.90;;;;;;5078182;28;20469;-86
2022/04/12 07:44:58;;;;;;;10.00;7.63;;;12.00;49.50;;;;;;5054710;28;21258;-87
2022/04/12 07:47:25;;;;;;;12.20;7.27;;;12.10;48.60;;;;;;5085098;28;20483;-87
2022/04/12 07:49:53;;;;;;;10.63;6.63;;;12.00;48.30;;;;;;5095138;28;20436;-87
2022/04/12 07:52:20;;;;;;;13.03;6.40;;;12.10;47.20;;;;;;5087108;28;21172;-87
2022/04/12 07:54:47;;;;;;;7.50;6.10;;;12.30;47.90;;;;;;5053034;28;20531;-86
2022/04/12 07:57:14;;;;;;;9.90;6.87;;;12.50;46.40;;;;;;5086508;28;20554;-87
2022/04/12 07:59:41;;;;;;;8.93;5.77;;;12.70;47.10;;;;;;5077540;28;20546;-86
2022/04/12 08:02:08;;;;;;;12.03;7.07;;;12.80;46.20;;;;;;5086923;28;20458;-86
2022/04/12 08:04:35;;;;;;;12.10;6.63;;;12.90;45.80;;;;;;5086678;28;20455;-87
2022/04/12 08:07:04;;;;;;;10.30;6.00;;;13.10;45.20;;;;;;5055288;28;20646;-86
2022/04/12 08:09:31;;;;;;;9.40;6.00;;;13.10;44.70;;;;;;5072865;28;20450;-87
2022/04/12 08:11:58;;;;;;;7.07;5.97;;;13.30;45.70;;;;;;5087083;28;20455;-87
2022/04/12 08:14:25;;;;;;;7.30;5.53;;;13.40;44.50;;;;;;5087121;28;20454;-90
2022/04/12 08:16:52;;;;;;;9.60;6.50;;;13.40;44.00;;;;;;5080211;28;21560;-89
2022/04/12 08:19:19;;;;;;;9.37;6.30;;;13.40;45.10;;;;;;5053601;28;20443;-88
2022/04/12 08:21:46;;;;;;;9.83;6.67;;;13.50;45.20;;;;;;5086700;28;20530;-87
2022/04/12 08:24:15;;;;;;;8.33;5.77;;;13.80;45.00;;;;;;5089862;28;20909;-87
2022/04/12 08:26:42;;;;;;;7.23;6.10;;;14.00;44.00;;;;;;5086758;28;20463;-87
2022/04/12 08:29:09;;;;;;;9.70;6.53;;;14.10;44.10;;;;;;5078990;28;20460;-86
2022/04/12 08:31:36;;;;;;;10.93;7.53;;;14.40;44.20;;;;;;5079775;28;20451;-87
2022/04/12 08:34:03;;;;;;;7.63;6.53;;;14.50;43.10;;;;;;5058124;28;20447;-88
2022/04/12 08:36:30;;;;;;;9.80;7.37;;;14.50;42.90;;;;;;5097185;28;20459;-88
2022/04/12 08:38:57;;;;;;;9.37;6.40;;;14.50;43.00;;;;;;5071269;28;20435;-88
2022/04/12 08:41:27;;;;;;;8.90;6.97;;;14.60;43.00;;;;;;5087459;28;20469;-88
2022/04/12 08:43:56;;;;;;;8.77;6.53;;;14.80;43.20;;;;;;5095897;28;21034;-88
2022/04/12 08:46:25;;;;;;;9.30;6.97;;;14.70;42.90;;;;;;5087073;28;20529;-88
2022/04/12 08:48:54;;;;;;;11.90;7.07;;;14.80;42.80;;;;;;5095258;28;20483;-88
2022/04/12 08:51:22;;;;;;;7.83;6.23;;;14.70;43.80;;;;;;5088638;28;21006;-87
2022/04/12 08:53:50;;;;;;;8.80;6.77;;;14.90;43.20;;;;;;5086505;28;20459;-86
2022/04/12 08:56:18;;;;;;;9.80;7.20;;;15.20;42.90;;;;;;5088067;28;20471;-87
2022/04/12 08:58:47;;;;;;;9.20;7.00;;;15.40;42.60;;;;;;5084300;28;20835;-87
2022/04/12 09:01:15;;;;;;;10.53;7.30;;;15.50;41.80;;;;;;5069060;28;20451;-85
2022/04/12 09:03:42;;;;;;;7.43;5.77;;;15.60;41.80;;;;;;5086846;28;20475;-86
2022/04/12 09:06:11;;;;;;;7.27;5.63;;;15.60;41.80;;;;;;5086390;28;20476;-88
2022/04/12 09:08:39;;;;;;;8.80;6.17;;;15.80;41.80;;;;;;5085378;28;20532;-85
2022/04/12 09:11:08;;;;;;;18.33;6.77;;;15.90;41.50;;;;;;5083476;28;20448;-88
2022/04/12 09:13:36;;;;;;;7.00;5.63;;;16.00;41.70;;;;;;5094572;28;21159;-86
2022/04/12 09:16:09;;;;;;;12.00;6.87;;;16.10;41.50;;;;;;5087926;28;20566;-86
2022/04/12 09:18:38;;;;;;;6.23;5.50;;;16.20;41.40;;;;;;5085618;28;20505;-87
2022/04/12 09:21:13;;;;;;;8.30;5.50;;;16.30;41.40;;;;;;5082592;28;20461;-87
2022/04/12 09:23:45;;;;;;;8.33;6.73;;;16.70;41.20;;;;;;5086291;28;20534;-86
2022/04/12 09:26:16;;;;;;;12.30;5.80;;;16.90;41.00;;;;;;5082050;28;20475;-87
2022/04/12 09:28:44;;;;;;;6.00;5.40;;;17.00;39.50;;;;;;5077323;28;21001;-86
2022/04/12 09:31:14;;;;;;;5.90;5.33;;;17.20;39.70;;;;;;5086756;28;20475;-87
2022/04/12 09:33:42;;;;;;;7.80;5.37;;;17.30;39.60;;;;;;5068123;28;20447;-87
2022/04/12 09:36:10;;;;;;;7.63;5.27;;;17.60;39.60;;;;;;5085314;28;20552;-87
2022/04/12 09:38:39;;;;;;;8.50;5.10;;;17.80;38.70;;;;;;5091318;28;20525;-86
2022/04/12 09:41:18;;;;;;;7.00;5.57;;;18.00;39.10;;;;;;5082295;28;20887;-86
2022/04/12 09:43:57;;;;;;;8.53;5.03;;;18.10;37.90;;;;;;5065349;28;20539;-87
2022/04/12 09:46:27;;;;;;;6.53;5.03;;;18.00;38.30;;;;;;5083901;28;20467;-86
2022/04/12 09:48:54;;;;;;;9.10;5.17;;;18.10;38.70;;;;;;5083083;28;20454;-86
2022/04/12 09:51:22;;;;;;;4.90;4.50;;;18.40;38.60;;;;;;5085832;28;20457;-88
2022/04/12 09:53:51;;;;;;;7.03;4.80;;;18.60;39.00;;;;;;5066810;28;20443;-85
2022/04/12 09:56:21;;;;;;;7.03;5.30;;;18.80;37.50;;;;;;5068367;28;20482;-86
2022/04/12 09:58:49;;;;;;;6.23;4.70;;;18.80;37.40;;;;;;5085489;28;20435;-87
2022/04/12 10:01:18;;;;;;;7.50;4.70;;;18.90;37.40;;;;;;5086002;28;20450;-87
2022/04/12 10:03:48;;;;;;;7.80;5.70;;;19.20;37.40;;;;;;5072418;28;20946;-86
2022/04/12 10:06:21;;;;;;;5.13;4.37;;;19.40;36.80;;;;;;5089082;28;20466;-88
2022/04/12 10:08:52;;;;;;;6.07;4.43;;;19.50;36.80;;;;;;5087001;28;20459;-86
2022/04/12 10:11:19;;;;;;;8.30;4.73;;;19.40;36.60;;;;;;5088266;28;20455;-87
2022/04/12 10:13:46;;;;;;;7.33;5.63;;;19.50;36.10;;;;;;5087615;28;20455;-86
2022/04/12 10:16:15;;;;;;;7.60;5.40;;;19.70;37.50;;;;;;5071662;28;20476;-88
2022/04/12 10:18:43;;;;;;;8.20;4.93;;;20.00;36.10;;;;;;5090885;27;20447;-86
2022/04/12 10:21:13;;;;;;;6.10;4.90;;;20.10;35.50;;;;;;5055718;28;20535;-86
2022/04/12 10:23:42;;;;;;;6.77;5.03;;;20.30;35.20;;;;;;5089234;28;20460;-89
2022/04/12 10:26:11;;;;;;;7.10;4.33;;;20.20;34.80;;;;;;5089627;28;20471;-85
2022/04/12 10:28:39;;;;;;;6.43;4.50;;;20.30;35.50;;;;;;5093541;28;20469;-86
2022/04/12 10:31:20;;;;;;;6.30;4.80;;;20.50;34.40;;;;;;5088541;28;20512;-87
2022/04/12 10:34:05;;;;;;;7.27;4.87;;;20.60;33.60;;;;;;5087855;28;20458;-86
2022/04/12 10:37:08;;;;;;;5.80;4.17;;;20.70;34.40;;;;;;5087693;28;20477;-85
2022/04/12 10:39:37;;;;;;;6.77;4.87;;;21.00;34.20;;;;;;5072795;28;20530;-87
2022/04/12 10:42:10;;;;;;;6.30;5.03;;;21.10;33.10;;;;;;5086239;28;20436;-87
2022/04/12 10:44:38;;;;;;;5.00;4.23;;;21.20;33.30;;;;;;5087093;28;20645;-88
2022/04/12 10:47:06;;;;;;;6.33;4.30;;;21.30;33.90;;;;;;5079165;28;21178;-87
2022/04/12 10:49:37;;;;;;;6.80;4.90;;;21.40;33.80;;;;;;5091166;28;20482;-86
2022/04/12 10:52:09;;;;;;;8.27;5.00;;;21.30;33.30;;;;;;5071401;28;20443;-86
2022/04/12 10:54:36;;;;;;;5.90;4.30;;;21.30;34.00;;;;;;5088799;28;20448;-86
2022/04/12 10:57:24;;;;;;;6.83;4.80;;;21.60;33.30;;;;;;5073002;28;20475;-89
2022/04/12 10:59:54;;;;;;;6.23;4.00;;;21.80;32.70;;;;;;5088484;27;20954;-87
2022/04/12 11:02:22;;;;;;;5.20;4.13;;;22.10;32.90;;;;;;5093029;28;20968;-86
2022/04/12 11:04:49;;;;;;;6.40;4.53;;;22.40;32.40;;;;;;5089767;28;20532;-87
2022/04/12 11:07:31;;;;;;;4.23;3.80;;;22.40;31.20;;;;;;5088905;28;21003;-88
2022/04/12 11:10:18;;;;;;;8.57;4.90;;;22.40;31.70;;;;;;5086479;28;20475;-87
2022/04/12 11:12:46;;;;;;;10.47;4.87;;;22.80;30.80;;;;;;5089124;28;20463;-86
2022/04/12 11:15:24;;;;;;;9.73;5.10;;;23.00;30.70;;;;;;5086286;28;21126;-87
2022/04/12 11:18:04;;;;;;;7.20;4.53;;;23.10;30.70;;;;;;5071741;28;20878;-89
2022/04/12 11:20:32;;;;;;;7.27;4.30;;;23.30;31.00;;;;;;5074393;28;21203;-86
2022/04/12 11:23:04;;;;;;;6.40;4.40;;;23.10;28.80;;;;;;5090661;28;20491;-87
2022/04/12 11:25:31;;;;;;;4.70;4.30;;;23.10;30.00;;;;;;5088452;28;20828;-85
2022/04/12 11:27:59;;;;;;;7.93;4.20;;;23.10;29.90;;;;;;5086485;28;20455;-88
2022/04/12 11:30:26;;;;;;;8.80;4.40;;;23.10;31.60;;;;;;5088609;28;20474;-86
2022/04/12 11:32:54;;;;;;;8.50;4.67;;;23.20;29.70;;;;;;5090911;28;20451;-88
2022/04/12 11:35:22;;;;;;;4.67;4.17;;;23.30;29.30;;;;;;5074417;28;20489;-86
2022/04/12 11:37:50;;;;;;;7.60;3.60;;;23.30;29.00;;;;;;5080446;28;20454;-86
2022/04/12 11:40:18;;;;;;;4.43;4.03;;;23.20;29.90;;;;;;5087545;28;20453;-87
2022/04/12 11:42:45;;;;;;;5.77;4.73;;;23.40;30.00;;;;;;5088996;28;20450;-87
2022/04/12 11:45:13;;;;;;;5.47;4.40;;;23.80;30.20;;;;;;5090427;28;21157;-86
2022/04/12 11:47:44;;;;;;;6.80;4.60;;;23.30;29.30;;;;;;5080124;28;20971;-87
2022/04/12 11:50:20;;;;;;;7.07;4.67;;;23.30;30.00;;;;;;5087052;28;20543;-86
2022/04/12 11:52:47;;;;;;;4.43;4.03;;;23.50;28.90;;;;;;5086220;28;20950;-88
2022/04/12 11:55:14;;;;;;;5.83;4.50;;;23.40;29.70;;;;;;5087357;28;20456;-88
2022/04/12 11:57:43;;;;;;;7.13;4.20;;;23.80;29.80;;;;;;5087287;28;20440;-86
2022/04/12 12:00:10;;;;;;;5.80;4.50;;;24.00;28.50;;;;;;5096901;28;20474;-87
2022/04/12 12:02:39;;;;;;;6.97;4.90;;;24.30;29.50;;;;;;5088434;28;20534;-89
2022/04/12 12:05:08;;;;;;;5.50;4.90;;;24.80;27.70;;;;;;5085797;28;20541;-88
2022/04/12 12:07:37;;;;;;;5.93;4.40;;;24.80;27.90;;;;;;5086354;28;20446;-88
2022/04/12 12:10:07;;;;;;;5.40;4.20;;;25.00;28.10;;;;;;5071741;28;20476;-85
2022/04/12 12:12:37;;;;;;;6.40;4.27;;;24.90;29.20;;;;;;5086778;28;20451;-88
2022/04/12 12:15:19;;;;;;;7.87;4.80;;;25.10;28.40;;;;;;5070757;28;20444;-88
2022/04/12 12:17:48;;;;;;;8.43;5.83;;;25.10;27.10;;;;;;5090467;28;20450;-86
2022/04/12 12:20:17;;;;;;;5.53;4.93;;;25.40;27.50;;;;;;5086625;28;20450;-87
2022/04/12 12:22:46;;;;;;;6.13;5.60;;;25.60;27.60;;;;;;5086899;28;20443;-88
2022/04/12 12:25:19;;;;;;;5.00;4.50;;;25.60;27.00;;;;;;5087087;28;20456;-87
2022/04/12 12:27:50;;;;;;;6.53;4.97;;;25.40;27.00;;;;;;5088486;28;20440;-86
2022/04/12 12:30:20;;;;;;;6.70;4.33;;;25.20;27.00;;;;;;5086073;28;21052;-87
2022/04/12 12:32:52;;;;;;;7.57;5.30;;;25.10;28.00;;;;;;5090986;28;20463;-87
2022/04/12 12:35:19;;;;;;;5.70;4.33;;;24.80;27.80;;;;;;5089191;28;20448;-88
2022/04/12 12:37:47;;;;;;;5.00;4.53;;;25.10;28.30;;;;;;5087529;28;20456;-89
2022/04/12 12:40:20;;;;;;;7.03;5.00;;;25.10;27.80;;;;;;5077393;28;20444;-90
2022/04/12 12:42:48;;;;;;;10.53;5.27;;;25.40;28.20;;;;;;5075993;28;20447;-88
2022/04/12 12:45:17;;;;;;;7.10;5.10;;;25.30;27.50;;;;;;5074446;28;20452;-87
2022/04/12 12:47:50;;;;;;;7.57;4.40;;;25.20;28.20;;;;;;5062385;28;20470;-88
2022/04/12 12:50:18;;;;;;;6.33;4.63;;;25.00;27.90;;;;;;5084334;28;20456;-90
2022/04/12 12:52:46;;;;;;;6.37;4.03;;;25.10;28.10;;;;;;5087702;28;20940;-89
2022/04/12 12:55:18;;;;;;;9.87;4.97;;;25.30;28.20;;;;;;5087876;28;20451;-87
2022/04/12 12:57:47;;;;;;;7.10;5.00;;;25.30;28.30;;;;;;5091314;28;20457;-88
2022/04/12 13:00:16;;;;;;;8.07;5.97;;;25.30;28.40;;;;;;5094899;28;20459;-87